sensor_id;sensor_type;location;lat;lon;timestamp;P1;durP1;ratioP1;P2;durP2;ratioP2
30327;SDS011;17133;52.418;13.398;2022-07-29T00:01:47;5.15;;;2.30;;
30327;SDS011;17133;52.418;13.398;2022-07-29T00:04:12;6.03;;;2.78;;
30327;SDS011;17133;52.418;13.398;2022-07-29T00:06:38;5.30;;;2.15;;
30327;SDS011;17133;52.418;13.398;2022-07-29T00:09:04;6.22;;;2.10;;
30327;SDS011;17133;52.418;13.398;2022-07-29T00:11:30;4.07;;;2.45;;
30327;SDS011;17133;52.418;13.398;2022-07-29T00:13:56;6.00;;;2.70;;
30327;SDS011;17133;52.418;13.398;2022-07-29T00:16:22;6.30;;;2.80;;
30327;SDS011;17133;52.418;13.398;2022-07-29T00:18:48;3.95;;;2.50;;
30327;SDS011;17133;52.418;13.398;2022-07-29T00:21:14;7.57;;;3.35;;
30327;SDS011;17133;52.418;13.398;2022-07-29T00:23:40;6.45;;;2.78;;
30327;SDS011;17133;52.418;13.398;2022-07-29T00:26:05;6.75;;;3.05;;
30327;SDS011;17133;52.418;13.398;2022-07-29T00:28:32;4.53;;;3.00;;
30327;SDS011;17133;52.418;13.398;2022-07-29T00:30:57;5.55;;;3.25;;
30327;SDS011;17133;52.418;13.398;2022-07-29T00:33:23;8.70;;;3.70;;
30327;SDS011;17133;52.418;13.398;2022-07-29T00:35:49;5.07;;;3.30;;
30327;SDS011;17133;52.418;13.398;2022-07-29T00:38:16;9.25;;;3.75;;
30327;SDS011;17133;52.418;13.398;2022-07-29T00:40:42;6.78;;;3.28;;
30327;SDS011;17133;52.418;13.398;2022-07-29T00:43:09;6.07;;;3.78;;
30327;SDS011;17133;52.418;13.398;2022-07-29T00:45:36;5.30;;;3.00;;
30327;SDS011;17133;52.418;13.398;2022-07-29T00:48:02;6.47;;;3.20;;
30327;SDS011;17133;52.418;13.398;2022-07-29T00:50:29;7.60;;;3.33;;
30327;SDS011;17133;52.418;13.398;2022-07-29T00:52:56;5.40;;;2.92;;
30327;SDS011;17133;52.418;13.398;2022-07-29T00:55:22;5.85;;;3.03;;
30327;SDS011;17133;52.418;13.398;2022-07-29T00:57:48;4.18;;;2.95;;
30327;SDS011;17133;52.418;13.398;2022-07-29T01:00:15;5.28;;;3.15;;
30327;SDS011;17133;52.418;13.398;2022-07-29T01:02:46;6.20;;;3.20;;
30327;SDS011;17133;52.418;13.398;2022-07-29T01:05:16;4.05;;;3.10;;
30327;SDS011;17133;52.418;13.398;2022-07-29T01:07:43;4.80;;;3.28;;
30327;SDS011;17133;52.418;13.398;2022-07-29T01:10:11;4.75;;;3.55;;
30327;SDS011;17133;52.418;13.398;2022-07-29T01:12:38;4.85;;;3.22;;
30327;SDS011;17133;52.418;13.398;2022-07-29T01:15:04;6.03;;;3.63;;
30327;SDS011;17133;52.418;13.398;2022-07-29T01:25:02;5.72;;;3.25;;
30327;SDS011;17133;52.418;13.398;2022-07-29T01:30:12;5.45;;;3.75;;
30327;SDS011;17133;52.418;13.398;2022-07-29T01:32:38;8.15;;;3.40;;
30327;SDS011;17133;52.418;13.398;2022-07-29T01:35:27;6.68;;;4.05;;
30327;SDS011;17133;52.418;13.398;2022-07-29T01:38:05;6.07;;;4.20;;
30327;SDS011;17133;52.418;13.398;2022-07-29T01:43:31;7.18;;;4.35;;
30327;SDS011;17133;52.418;13.398;2022-07-29T01:46:05;10.10;;;4.43;;
30327;SDS011;17133;52.418;13.398;2022-07-29T01:51:07;7.18;;;4.25;;
30327;SDS011;17133;52.418;13.398;2022-07-29T01:53:51;9.07;;;4.40;;
30327;SDS011;17133;52.418;13.398;2022-07-29T01:56:22;7.35;;;3.92;;
30327;SDS011;17133;52.418;13.398;2022-07-29T01:58:49;5.88;;;3.97;;
30327;SDS011;17133;52.418;13.398;2022-07-29T02:01:17;7.93;;;4.60;;
30327;SDS011;17133;52.418;13.398;2022-07-29T02:03:44;7.40;;;4.10;;
30327;SDS011;17133;52.418;13.398;2022-07-29T02:06:11;5.75;;;3.72;;
30327;SDS011;17133;52.418;13.398;2022-07-29T02:08:37;8.20;;;4.78;;
30327;SDS011;17133;52.418;13.398;2022-07-29T02:11:04;5.93;;;4.22;;
30327;SDS011;17133;52.418;13.398;2022-07-29T02:13:31;9.25;;;4.10;;
30327;SDS011;17133;52.418;13.398;2022-07-29T02:15:57;6.75;;;3.83;;
30327;SDS011;17133;52.418;13.398;2022-07-29T02:18:25;7.55;;;4.10;;
30327;SDS011;17133;52.418;13.398;2022-07-29T02:20:55;7.80;;;4.40;;
30327;SDS011;17133;52.418;13.398;2022-07-29T02:23:23;7.93;;;4.72;;
30327;SDS011;17133;52.418;13.398;2022-07-29T02:25:51;7.43;;;4.03;;
30327;SDS011;17133;52.418;13.398;2022-07-29T02:28:19;6.82;;;4.22;;
30327;SDS011;17133;52.418;13.398;2022-07-29T02:30:58;6.95;;;4.25;;
30327;SDS011;17133;52.418;13.398;2022-07-29T02:33:26;7.93;;;4.70;;
30327;SDS011;17133;52.418;13.398;2022-07-29T02:35:53;8.90;;;5.13;;
30327;SDS011;17133;52.418;13.398;2022-07-29T02:38:21;8.63;;;4.72;;
30327;SDS011;17133;52.418;13.398;2022-07-29T02:41:09;5.95;;;3.95;;
30327;SDS011;17133;52.418;13.398;2022-07-29T02:43:38;6.50;;;3.67;;
30327;SDS011;17133;52.418;13.398;2022-07-29T02:46:09;7.65;;;4.45;;
30327;SDS011;17133;52.418;13.398;2022-07-29T02:48:46;4.85;;;3.90;;
30327;SDS011;17133;52.418;13.398;2022-07-29T02:51:21;7.75;;;4.85;;
30327;SDS011;17133;52.418;13.398;2022-07-29T02:53:51;5.95;;;4.00;;
30327;SDS011;17133;52.418;13.398;2022-07-29T02:56:21;7.85;;;4.53;;
30327;SDS011;17133;52.418;13.398;2022-07-29T02:58:56;9.18;;;5.03;;
30327;SDS011;17133;52.418;13.398;2022-07-29T03:01:24;10.88;;;4.63;;
30327;SDS011;17133;52.418;13.398;2022-07-29T03:06:20;7.88;;;4.07;;
30327;SDS011;17133;52.418;13.398;2022-07-29T03:08:48;7.38;;;4.75;;
30327;SDS011;17133;52.418;13.398;2022-07-29T03:11:15;12.05;;;4.40;;
30327;SDS011;17133;52.418;13.398;2022-07-29T03:13:42;7.07;;;4.13;;
30327;SDS011;17133;52.418;13.398;2022-07-29T03:16:08;7.55;;;4.38;;
30327;SDS011;17133;52.418;13.398;2022-07-29T03:18:35;6.85;;;4.60;;
30327;SDS011;17133;52.418;13.398;2022-07-29T03:21:02;9.20;;;4.55;;
30327;SDS011;17133;52.418;13.398;2022-07-29T03:23:28;6.72;;;4.20;;
30327;SDS011;17133;52.418;13.398;2022-07-29T03:25:54;7.78;;;4.28;;
30327;SDS011;17133;52.418;13.398;2022-07-29T03:28:20;5.45;;;4.10;;
30327;SDS011;17133;52.418;13.398;2022-07-29T03:30:47;7.38;;;4.43;;
30327;SDS011;17133;52.418;13.398;2022-07-29T03:33:13;9.15;;;4.70;;
30327;SDS011;17133;52.418;13.398;2022-07-29T03:35:38;6.72;;;4.45;;
30327;SDS011;17133;52.418;13.398;2022-07-29T03:38:04;6.85;;;3.80;;
30327;SDS011;17133;52.418;13.398;2022-07-29T03:40:51;5.15;;;4.10;;
30327;SDS011;17133;52.418;13.398;2022-07-29T03:43:19;7.75;;;4.60;;
30327;SDS011;17133;52.418;13.398;2022-07-29T03:45:47;7.43;;;4.55;;
30327;SDS011;17133;52.418;13.398;2022-07-29T03:48:17;7.22;;;4.13;;
30327;SDS011;17133;52.418;13.398;2022-07-29T03:50:46;8.77;;;4.32;;
30327;SDS011;17133;52.418;13.398;2022-07-29T03:53:12;7.13;;;4.57;;
30327;SDS011;17133;52.418;13.398;2022-07-29T03:55:41;7.05;;;4.20;;
30327;SDS011;17133;52.418;13.398;2022-07-29T03:58:10;7.53;;;4.43;;
30327;SDS011;17133;52.418;13.398;2022-07-29T04:00:37;9.73;;;4.10;;
30327;SDS011;17133;52.418;13.398;2022-07-29T04:03:03;7.07;;;4.32;;
30327;SDS011;17133;52.418;13.398;2022-07-29T04:05:30;6.45;;;4.60;;
30327;SDS011;17133;52.418;13.398;2022-07-29T04:07:55;8.80;;;4.68;;
30327;SDS011;17133;52.418;13.398;2022-07-29T04:10:21;6.75;;;4.13;;
30327;SDS011;17133;52.418;13.398;2022-07-29T04:12:50;9.30;;;4.70;;
30327;SDS011;17133;52.418;13.398;2022-07-29T04:15:16;10.93;;;4.82;;
30327;SDS011;17133;52.418;13.398;2022-07-29T04:17:41;7.10;;;4.30;;
30327;SDS011;17133;52.418;13.398;2022-07-29T04:20:08;5.03;;;3.88;;
30327;SDS011;17133;52.418;13.398;2022-07-29T04:22:34;5.35;;;3.90;;
30327;SDS011;17133;52.418;13.398;2022-07-29T04:24:59;12.10;;;5.03;;
30327;SDS011;17133;52.418;13.398;2022-07-29T04:27:25;7.13;;;4.03;;
30327;SDS011;17133;52.418;13.398;2022-07-29T04:29:50;9.25;;;4.25;;
30327;SDS011;17133;52.418;13.398;2022-07-29T04:32:16;4.80;;;3.80;;
30327;SDS011;17133;52.418;13.398;2022-07-29T04:34:42;6.45;;;4.57;;
30327;SDS011;17133;52.418;13.398;2022-07-29T04:37:07;9.00;;;4.80;;
30327;SDS011;17133;52.418;13.398;2022-07-29T04:39:33;6.90;;;4.25;;
30327;SDS011;17133;52.418;13.398;2022-07-29T04:41:58;7.63;;;4.20;;
30327;SDS011;17133;52.418;13.398;2022-07-29T04:44:24;6.32;;;3.88;;
30327;SDS011;17133;52.418;13.398;2022-07-29T04:46:50;8.60;;;4.32;;
30327;SDS011;17133;52.418;13.398;2022-07-29T04:49:15;7.88;;;4.22;;
30327;SDS011;17133;52.418;13.398;2022-07-29T04:51:41;6.63;;;4.20;;
30327;SDS011;17133;52.418;13.398;2022-07-29T04:54:07;7.95;;;4.45;;
30327;SDS011;17133;52.418;13.398;2022-07-29T04:56:32;6.38;;;3.92;;
30327;SDS011;17133;52.418;13.398;2022-07-29T04:58:58;9.05;;;4.20;;
30327;SDS011;17133;52.418;13.398;2022-07-29T05:01:24;6.03;;;4.47;;
30327;SDS011;17133;52.418;13.398;2022-07-29T05:03:49;6.35;;;3.95;;
30327;SDS011;17133;52.418;13.398;2022-07-29T05:06:15;8.70;;;4.30;;
30327;SDS011;17133;52.418;13.398;2022-07-29T05:08:41;9.68;;;4.30;;
30327;SDS011;17133;52.418;13.398;2022-07-29T05:11:06;5.10;;;3.65;;
30327;SDS011;17133;52.418;13.398;2022-07-29T05:13:32;5.32;;;3.42;;
30327;SDS011;17133;52.418;13.398;2022-07-29T05:15:58;5.55;;;3.97;;
30327;SDS011;17133;52.418;13.398;2022-07-29T05:18:24;7.00;;;4.10;;
30327;SDS011;17133;52.418;13.398;2022-07-29T05:20:50;7.40;;;4.50;;
30327;SDS011;17133;52.418;13.398;2022-07-29T05:23:16;7.30;;;4.32;;
30327;SDS011;17133;52.418;13.398;2022-07-29T05:25:41;7.50;;;3.90;;
30327;SDS011;17133;52.418;13.398;2022-07-29T05:28:07;7.70;;;4.13;;
30327;SDS011;17133;52.418;13.398;2022-07-29T05:30:33;5.93;;;3.67;;
30327;SDS011;17133;52.418;13.398;2022-07-29T05:32:58;8.80;;;4.60;;
30327;SDS011;17133;52.418;13.398;2022-07-29T05:35:24;13.07;;;4.63;;
30327;SDS011;17133;52.418;13.398;2022-07-29T05:37:50;6.32;;;4.00;;
30327;SDS011;17133;52.418;13.398;2022-07-29T05:40:15;5.57;;;3.97;;
30327;SDS011;17133;52.418;13.398;2022-07-29T05:42:41;6.40;;;3.58;;
30327;SDS011;17133;52.418;13.398;2022-07-29T05:45:07;6.25;;;3.88;;
30327;SDS011;17133;52.418;13.398;2022-07-29T05:47:33;5.45;;;3.50;;
30327;SDS011;17133;52.418;13.398;2022-07-29T05:49:59;6.60;;;4.10;;
30327;SDS011;17133;52.418;13.398;2022-07-29T05:52:24;7.68;;;4.50;;
30327;SDS011;17133;52.418;13.398;2022-07-29T05:54:50;6.78;;;4.00;;
30327;SDS011;17133;52.418;13.398;2022-07-29T05:57:16;7.43;;;3.85;;
30327;SDS011;17133;52.418;13.398;2022-07-29T05:59:48;6.57;;;4.40;;
30327;SDS011;17133;52.418;13.398;2022-07-29T06:02:14;7.85;;;3.60;;
30327;SDS011;17133;52.418;13.398;2022-07-29T06:04:40;6.18;;;4.28;;
30327;SDS011;17133;52.418;13.398;2022-07-29T06:07:06;5.32;;;3.53;;
30327;SDS011;17133;52.418;13.398;2022-07-29T06:09:32;6.82;;;3.78;;
30327;SDS011;17133;52.418;13.398;2022-07-29T06:11:58;7.22;;;3.95;;
30327;SDS011;17133;52.418;13.398;2022-07-29T06:14:24;4.53;;;3.22;;
30327;SDS011;17133;52.418;13.398;2022-07-29T06:16:51;6.78;;;3.97;;
30327;SDS011;17133;52.418;13.398;2022-07-29T06:19:18;7.22;;;3.63;;
30327;SDS011;17133;52.418;13.398;2022-07-29T06:21:44;5.40;;;3.42;;
30327;SDS011;17133;52.418;13.398;2022-07-29T06:24:11;8.50;;;4.45;;
30327;SDS011;17133;52.418;13.398;2022-07-29T06:26:38;8.52;;;3.95;;
30327;SDS011;17133;52.418;13.398;2022-07-29T06:29:05;10.55;;;3.72;;
30327;SDS011;17133;52.418;13.398;2022-07-29T06:31:31;6.32;;;3.47;;
30327;SDS011;17133;52.418;13.398;2022-07-29T06:33:56;6.68;;;3.70;;
30327;SDS011;17133;52.418;13.398;2022-07-29T06:36:22;7.35;;;3.58;;
30327;SDS011;17133;52.418;13.398;2022-07-29T06:38:48;6.82;;;3.78;;
30327;SDS011;17133;52.418;13.398;2022-07-29T06:41:13;6.70;;;3.90;;
30327;SDS011;17133;52.418;13.398;2022-07-29T06:43:41;9.88;;;4.40;;
30327;SDS011;17133;52.418;13.398;2022-07-29T06:46:08;5.90;;;3.50;;
30327;SDS011;17133;52.418;13.398;2022-07-29T06:48:35;4.95;;;3.50;;
30327;SDS011;17133;52.418;13.398;2022-07-29T06:51:02;5.68;;;3.42;;
30327;SDS011;17133;52.418;13.398;2022-07-29T06:53:29;6.30;;;3.40;;
30327;SDS011;17133;52.418;13.398;2022-07-29T06:55:55;6.95;;;3.20;;
30327;SDS011;17133;52.418;13.398;2022-07-29T06:58:21;7.00;;;3.10;;
30327;SDS011;17133;52.418;13.398;2022-07-29T07:00:47;7.30;;;3.15;;
30327;SDS011;17133;52.418;13.398;2022-07-29T07:03:13;8.32;;;3.58;;
30327;SDS011;17133;52.418;13.398;2022-07-29T07:05:39;5.63;;;3.83;;
30327;SDS011;17133;52.418;13.398;2022-07-29T07:08:05;5.60;;;3.50;;
30327;SDS011;17133;52.418;13.398;2022-07-29T07:10:31;6.30;;;3.22;;
30327;SDS011;17133;52.418;13.398;2022-07-29T07:12:57;6.40;;;3.58;;
30327;SDS011;17133;52.418;13.398;2022-07-29T07:15:23;5.63;;;3.10;;
30327;SDS011;17133;52.418;13.398;2022-07-29T07:17:49;9.30;;;4.13;;
30327;SDS011;17133;52.418;13.398;2022-07-29T07:20:15;8.02;;;3.30;;
30327;SDS011;17133;52.418;13.398;2022-07-29T07:22:41;7.10;;;3.60;;
30327;SDS011;17133;52.418;13.398;2022-07-29T07:25:07;6.88;;;3.65;;
30327;SDS011;17133;52.418;13.398;2022-07-29T07:27:33;7.97;;;3.22;;
30327;SDS011;17133;52.418;13.398;2022-07-29T07:29:59;6.95;;;3.42;;
30327;SDS011;17133;52.418;13.398;2022-07-29T07:32:25;9.77;;;4.10;;
30327;SDS011;17133;52.418;13.398;2022-07-29T07:34:51;6.25;;;3.53;;
30327;SDS011;17133;52.418;13.398;2022-07-29T07:37:16;7.53;;;3.45;;
30327;SDS011;17133;52.418;13.398;2022-07-29T07:39:44;8.88;;;3.22;;
30327;SDS011;17133;52.418;13.398;2022-07-29T07:42:10;4.85;;;2.90;;
30327;SDS011;17133;52.418;13.398;2022-07-29T07:44:37;6.47;;;2.70;;
30327;SDS011;17133;52.418;13.398;2022-07-29T07:47:03;6.43;;;3.13;;
30327;SDS011;17133;52.418;13.398;2022-07-29T07:49:29;7.40;;;3.47;;
30327;SDS011;17133;52.418;13.398;2022-07-29T07:51:55;7.30;;;2.67;;
30327;SDS011;17133;52.418;13.398;2022-07-29T07:54:21;6.97;;;2.75;;
30327;SDS011;17133;52.418;13.398;2022-07-29T07:56:46;6.70;;;3.08;;
30327;SDS011;17133;52.418;13.398;2022-07-29T08:01:41;9.95;;;3.08;;
30327;SDS011;17133;52.418;13.398;2022-07-29T08:04:07;14.13;;;3.20;;
30327;SDS011;17133;52.418;13.398;2022-07-29T08:06:33;9.45;;;3.30;;
30327;SDS011;17133;52.418;13.398;2022-07-29T08:09:00;6.25;;;2.88;;
30327;SDS011;17133;52.418;13.398;2022-07-29T08:11:26;8.15;;;2.72;;
30327;SDS011;17133;52.418;13.398;2022-07-29T08:13:52;6.28;;;2.60;;
30327;SDS011;17133;52.418;13.398;2022-07-29T08:16:18;5.95;;;2.67;;
30327;SDS011;17133;52.418;13.398;2022-07-29T08:18:45;6.35;;;2.75;;
30327;SDS011;17133;52.418;13.398;2022-07-29T08:21:11;8.95;;;3.22;;
30327;SDS011;17133;52.418;13.398;2022-07-29T08:23:37;5.63;;;2.70;;
30327;SDS011;17133;52.418;13.398;2022-07-29T08:26:07;6.20;;;2.60;;
30327;SDS011;17133;52.418;13.398;2022-07-29T08:28:38;3.60;;;2.20;;
30327;SDS011;17133;52.418;13.398;2022-07-29T08:31:05;6.25;;;2.45;;
30327;SDS011;17133;52.418;13.398;2022-07-29T08:33:31;7.43;;;2.40;;
30327;SDS011;17133;52.418;13.398;2022-07-29T08:35:59;4.07;;;2.22;;
30327;SDS011;17133;52.418;13.398;2022-07-29T08:38:25;5.07;;;2.78;;
30327;SDS011;17133;52.418;13.398;2022-07-29T08:40:51;4.22;;;2.58;;
30327;SDS011;17133;52.418;13.398;2022-07-29T08:43:18;6.53;;;2.70;;
30327;SDS011;17133;52.418;13.398;2022-07-29T08:45:47;6.80;;;2.50;;
30327;SDS011;17133;52.418;13.398;2022-07-29T08:48:15;7.07;;;2.83;;
30327;SDS011;17133;52.418;13.398;2022-07-29T08:50:43;6.73;;;2.57;;
30327;SDS011;17133;52.418;13.398;2022-07-29T08:53:12;5.10;;;2.20;;
30327;SDS011;17133;52.418;13.398;2022-07-29T08:55:43;5.70;;;2.90;;
30327;SDS011;17133;52.418;13.398;2022-07-29T08:58:09;5.32;;;2.65;;
30327;SDS011;17133;52.418;13.398;2022-07-29T09:00:36;6.82;;;2.35;;
30327;SDS011;17133;52.418;13.398;2022-07-29T09:03:05;8.23;;;3.03;;
30327;SDS011;17133;52.418;13.398;2022-07-29T09:05:33;7.32;;;2.58;;
30327;SDS011;17133;52.418;13.398;2022-07-29T09:07:59;6.25;;;2.72;;
30327;SDS011;17133;52.418;13.398;2022-07-29T09:10:25;4.50;;;2.45;;
30327;SDS011;17133;52.418;13.398;2022-07-29T09:12:51;5.78;;;2.80;;
30327;SDS011;17133;52.418;13.398;2022-07-29T09:15:17;8.05;;;2.90;;
30327;SDS011;17133;52.418;13.398;2022-07-29T09:17:44;8.25;;;2.65;;
30327;SDS011;17133;52.418;13.398;2022-07-29T09:20:12;5.70;;;2.60;;
30327;SDS011;17133;52.418;13.398;2022-07-29T09:22:39;4.83;;;2.10;;
30327;SDS011;17133;52.418;13.398;2022-07-29T09:25:05;6.80;;;2.45;;
30327;SDS011;17133;52.418;13.398;2022-07-29T09:27:31;4.35;;;2.40;;
30327;SDS011;17133;52.418;13.398;2022-07-29T09:29:59;3.20;;;1.80;;
30327;SDS011;17133;52.418;13.398;2022-07-29T09:32:29;4.63;;;2.60;;
30327;SDS011;17133;52.418;13.398;2022-07-29T09:37:40;5.80;;;2.35;;
30327;SDS011;17133;52.418;13.398;2022-07-29T09:40:16;3.00;;;1.98;;
30327;SDS011;17133;52.418;13.398;2022-07-29T09:42:46;6.80;;;2.17;;
30327;SDS011;17133;52.418;13.398;2022-07-29T09:45:12;5.50;;;2.55;;
30327;SDS011;17133;52.418;13.398;2022-07-29T09:50:16;3.08;;;2.05;;
30327;SDS011;17133;52.418;13.398;2022-07-29T09:52:48;5.65;;;2.65;;
30327;SDS011;17133;52.418;13.398;2022-07-29T09:55:14;4.47;;;2.10;;
30327;SDS011;17133;52.418;13.398;2022-07-29T09:57:41;4.32;;;1.92;;
30327;SDS011;17133;52.418;13.398;2022-07-29T10:00:09;5.15;;;2.00;;
30327;SDS011;17133;52.418;13.398;2022-07-29T10:02:37;4.57;;;1.88;;
30327;SDS011;17133;52.418;13.398;2022-07-29T10:05:05;3.80;;;2.22;;
30327;SDS011;17133;52.418;13.398;2022-07-29T10:07:45;5.55;;;2.17;;
30327;SDS011;17133;52.418;13.398;2022-07-29T10:10:34;5.35;;;1.65;;
30327;SDS011;17133;52.418;13.398;2022-07-29T10:13:04;2.67;;;1.63;;
30327;SDS011;17133;52.418;13.398;2022-07-29T10:15:36;2.33;;;1.75;;
30327;SDS011;17133;52.418;13.398;2022-07-29T10:18:08;5.68;;;1.85;;
30327;SDS011;17133;52.418;13.398;2022-07-29T10:20:36;5.97;;;1.90;;
30327;SDS011;17133;52.418;13.398;2022-07-29T10:23:02;5.90;;;1.90;;
30327;SDS011;17133;52.418;13.398;2022-07-29T10:25:28;2.92;;;1.95;;
30327;SDS011;17133;52.418;13.398;2022-07-29T10:27:55;5.22;;;2.35;;
30327;SDS011;17133;52.418;13.398;2022-07-29T10:30:21;7.75;;;2.95;;
30327;SDS011;17133;52.418;13.398;2022-07-29T10:32:51;5.03;;;2.30;;
30327;SDS011;17133;52.418;13.398;2022-07-29T10:43:42;4.03;;;2.13;;
30327;SDS011;17133;52.418;13.398;2022-07-29T10:46:10;3.47;;;1.80;;
30327;SDS011;17133;52.418;13.398;2022-07-29T10:54:19;2.70;;;2.35;;
30327;SDS011;17133;52.418;13.398;2022-07-29T11:05:04;3.97;;;2.28;;
30327;SDS011;17133;52.418;13.398;2022-07-29T11:07:32;3.80;;;2.05;;
30327;SDS011;17133;52.418;13.398;2022-07-29T11:10:18;6.32;;;2.45;;
30327;SDS011;17133;52.418;13.398;2022-07-29T11:12:46;4.35;;;2.17;;
30327;SDS011;17133;52.418;13.398;2022-07-29T11:15:15;3.30;;;2.00;;
30327;SDS011;17133;52.418;13.398;2022-07-29T11:25:45;6.18;;;2.67;;
30327;SDS011;17133;52.418;13.398;2022-07-29T11:28:32;7.15;;;2.60;;
30327;SDS011;17133;52.418;13.398;2022-07-29T11:31:00;8.20;;;2.67;;
30327;SDS011;17133;52.418;13.398;2022-07-29T11:33:30;4.93;;;2.63;;
30327;SDS011;17133;52.418;13.398;2022-07-29T11:36:07;6.15;;;2.70;;
30327;SDS011;17133;52.418;13.398;2022-07-29T11:38:34;3.55;;;2.33;;
30327;SDS011;17133;52.418;13.398;2022-07-29T11:43:52;9.70;;;3.25;;
30327;SDS011;17133;52.418;13.398;2022-07-29T11:46:42;6.13;;;3.20;;
30327;SDS011;17133;52.418;13.398;2022-07-29T11:49:06;5.75;;;3.13;;
30327;SDS011;17133;52.418;13.398;2022-07-29T11:51:33;5.63;;;3.15;;
30327;SDS011;17133;52.418;13.398;2022-07-29T11:54:01;7.30;;;3.00;;
30327;SDS011;17133;52.418;13.398;2022-07-29T11:56:26;4.22;;;3.17;;
30327;SDS011;17133;52.418;13.398;2022-07-29T11:59:06;3.55;;;2.45;;
30327;SDS011;17133;52.418;13.398;2022-07-29T12:01:36;5.05;;;2.90;;
30327;SDS011;17133;52.418;13.398;2022-07-29T12:04:05;4.68;;;3.05;;
30327;SDS011;17133;52.418;13.398;2022-07-29T12:06:32;5.43;;;2.90;;
30327;SDS011;17133;52.418;13.398;2022-07-29T12:08:58;5.35;;;3.00;;
30327;SDS011;17133;52.418;13.398;2022-07-29T12:11:25;4.05;;;2.72;;
30327;SDS011;17133;52.418;13.398;2022-07-29T12:13:52;3.95;;;2.60;;
30327;SDS011;17133;52.418;13.398;2022-07-29T12:16:19;6.32;;;2.67;;
30327;SDS011;17133;52.418;13.398;2022-07-29T12:19:01;3.63;;;2.70;;
30327;SDS011;17133;52.418;13.398;2022-07-29T12:21:28;11.90;;;3.25;;
30327;SDS011;17133;52.418;13.398;2022-07-29T12:23:55;6.03;;;3.28;;
30327;SDS011;17133;52.418;13.398;2022-07-29T12:26:21;5.78;;;3.05;;
30327;SDS011;17133;52.418;13.398;2022-07-29T12:28:48;4.97;;;2.75;;
30327;SDS011;17133;52.418;13.398;2022-07-29T12:31:14;4.93;;;2.63;;
30327;SDS011;17133;52.418;13.398;2022-07-29T12:33:41;4.65;;;2.97;;
30327;SDS011;17133;52.418;13.398;2022-07-29T12:36:07;5.43;;;2.58;;
30327;SDS011;17133;52.418;13.398;2022-07-29T12:38:34;3.70;;;2.40;;
30327;SDS011;17133;52.418;13.398;2022-07-29T12:41:00;5.75;;;3.13;;
30327;SDS011;17133;52.418;13.398;2022-07-29T12:43:26;5.18;;;3.17;;
30327;SDS011;17133;52.418;13.398;2022-07-29T12:45:53;5.07;;;2.92;;
30327;SDS011;17133;52.418;13.398;2022-07-29T12:48:35;5.75;;;3.08;;
30327;SDS011;17133;52.418;13.398;2022-07-29T12:51:02;6.35;;;3.00;;
30327;SDS011;17133;52.418;13.398;2022-07-29T12:53:28;4.95;;;2.88;;
30327;SDS011;17133;52.418;13.398;2022-07-29T12:55:55;7.43;;;3.40;;
30327;SDS011;17133;52.418;13.398;2022-07-29T12:58:28;4.47;;;3.30;;
30327;SDS011;17133;52.418;13.398;2022-07-29T13:01:14;6.13;;;3.20;;
30327;SDS011;17133;52.418;13.398;2022-07-29T13:04:03;6.45;;;3.63;;
30327;SDS011;17133;52.418;13.398;2022-07-29T13:09:05;4.05;;;3.22;;
30327;SDS011;17133;52.418;13.398;2022-07-29T13:11:32;6.63;;;2.70;;
30327;SDS011;17133;52.418;13.398;2022-07-29T13:13:59;4.53;;;2.75;;
30327;SDS011;17133;52.418;13.398;2022-07-29T13:16:25;6.53;;;3.47;;
30327;SDS011;17133;52.418;13.398;2022-07-29T13:19:10;6.75;;;3.60;;
30327;SDS011;17133;52.418;13.398;2022-07-29T13:21:37;7.28;;;3.08;;
30327;SDS011;17133;52.418;13.398;2022-07-29T13:24:04;7.68;;;3.35;;
30327;SDS011;17133;52.418;13.398;2022-07-29T13:26:30;5.50;;;3.00;;
30327;SDS011;17133;52.418;13.398;2022-07-29T13:28:57;4.85;;;2.90;;
30327;SDS011;17133;52.418;13.398;2022-07-29T13:37:30;6.63;;;3.65;;
30327;SDS011;17133;52.418;13.398;2022-07-29T13:39:58;6.03;;;2.85;;
30327;SDS011;17133;52.418;13.398;2022-07-29T13:42:25;5.50;;;3.22;;
30327;SDS011;17133;52.418;13.398;2022-07-29T13:44:51;5.10;;;3.40;;
30327;SDS011;17133;52.418;13.398;2022-07-29T13:47:18;6.18;;;3.30;;
30327;SDS011;17133;52.418;13.398;2022-07-29T13:49:44;6.00;;;3.45;;
30327;SDS011;17133;52.418;13.398;2022-07-29T13:52:10;4.85;;;3.50;;
30327;SDS011;17133;52.418;13.398;2022-07-29T13:54:37;6.43;;;3.60;;
30327;SDS011;17133;52.418;13.398;2022-07-29T13:57:06;8.18;;;3.20;;
30327;SDS011;17133;52.418;13.398;2022-07-29T13:59:32;4.35;;;3.17;;
30327;SDS011;17133;52.418;13.398;2022-07-29T14:01:58;6.10;;;3.08;;
30327;SDS011;17133;52.418;13.398;2022-07-29T14:04:24;4.78;;;3.08;;
30327;SDS011;17133;52.418;13.398;2022-07-29T14:06:51;5.28;;;3.30;;
30327;SDS011;17133;52.418;13.398;2022-07-29T14:09:17;6.20;;;3.25;;
30327;SDS011;17133;52.418;13.398;2022-07-29T14:11:43;5.78;;;3.10;;
30327;SDS011;17133;52.418;13.398;2022-07-29T14:14:10;5.32;;;2.95;;
30327;SDS011;17133;52.418;13.398;2022-07-29T14:16:37;4.38;;;2.72;;
30327;SDS011;17133;52.418;13.398;2022-07-29T14:19:03;5.20;;;3.20;;
30327;SDS011;17133;52.418;13.398;2022-07-29T14:21:29;6.43;;;3.00;;
30327;SDS011;17133;52.418;13.398;2022-07-29T14:23:55;6.50;;;3.47;;
30327;SDS011;17133;52.418;13.398;2022-07-29T14:26:21;4.25;;;2.70;;
30327;SDS011;17133;52.418;13.398;2022-07-29T14:28:48;6.60;;;3.00;;
30327;SDS011;17133;52.418;13.398;2022-07-29T14:31:14;4.53;;;3.10;;
30327;SDS011;17133;52.418;13.398;2022-07-29T14:33:41;5.85;;;3.15;;
30327;SDS011;17133;52.418;13.398;2022-07-29T14:36:10;6.22;;;2.90;;
30327;SDS011;17133;52.418;13.398;2022-07-29T14:38:36;6.38;;;3.50;;
30327;SDS011;17133;52.418;13.398;2022-07-29T15:19:49;5.82;;;3.45;;
30327;SDS011;17133;52.418;13.398;2022-07-29T15:22:15;3.63;;;2.90;;
30327;SDS011;17133;52.418;13.398;2022-07-29T15:24:41;4.32;;;2.90;;
30327;SDS011;17133;52.418;13.398;2022-07-29T15:27:07;4.30;;;2.92;;
30327;SDS011;17133;52.418;13.398;2022-07-29T15:29:39;4.88;;;3.13;;
30327;SDS011;17133;52.418;13.398;2022-07-29T15:32:05;9.90;;;3.85;;
30327;SDS011;17133;52.418;13.398;2022-07-29T15:34:31;4.55;;;2.95;;
30327;SDS011;17133;52.418;13.398;2022-07-29T15:36:57;7.95;;;3.60;;
30327;SDS011;17133;52.418;13.398;2022-07-29T15:39:23;6.30;;;3.55;;
30327;SDS011;17133;52.418;13.398;2022-07-29T15:41:49;5.15;;;3.45;;
30327;SDS011;17133;52.418;13.398;2022-07-29T15:44:16;8.07;;;3.72;;
30327;SDS011;17133;52.418;13.398;2022-07-29T15:46:42;5.80;;;3.00;;
30327;SDS011;17133;52.418;13.398;2022-07-29T15:49:26;4.55;;;3.30;;
30327;SDS011;17133;52.418;13.398;2022-07-29T15:51:56;5.03;;;3.13;;
30327;SDS011;17133;52.418;13.398;2022-07-29T15:54:23;4.07;;;2.95;;
30327;SDS011;17133;52.418;13.398;2022-07-29T15:56:49;5.30;;;3.33;;
30327;SDS011;17133;52.418;13.398;2022-07-29T15:59:15;5.68;;;3.08;;
30327;SDS011;17133;52.418;13.398;2022-07-29T16:01:41;5.07;;;3.22;;
30327;SDS011;17133;52.418;13.398;2022-07-29T16:04:07;6.45;;;3.42;;
30327;SDS011;17133;52.418;13.398;2022-07-29T16:06:33;6.97;;;3.50;;
30327;SDS011;17133;52.418;13.398;2022-07-29T16:08:59;3.83;;;3.03;;
30327;SDS011;17133;52.418;13.398;2022-07-29T16:11:25;5.07;;;3.15;;
30327;SDS011;17133;52.418;13.398;2022-07-29T16:13:51;4.57;;;2.90;;
30327;SDS011;17133;52.418;13.398;2022-07-29T16:16:17;6.95;;;3.17;;
30327;SDS011;17133;52.418;13.398;2022-07-29T16:18:43;5.75;;;3.22;;
30327;SDS011;17133;52.418;13.398;2022-07-29T16:21:10;3.55;;;2.97;;
30327;SDS011;17133;52.418;13.398;2022-07-29T16:23:36;4.55;;;2.80;;